Time;durP1;ratioP1;P1;durP2;ratioP2;P2;SDS_P1;SDS_P2;PMS_P1;PMS_P2;Temp;Humidity;BMP_temperature;BMP_pressure;BME280_temperature;BME280_humidity;BME280_pressure;Samples;Min_cycle;Max_cycle;Signal;HPM_P1;HPM_P2
2022/04/01 00:00:54;;;;;;;39.63;26.73;;;;;;;12.17;71.34;99372.00;2570179;23;20155;-66
2022/04/01 00:01:55;;;;;;;40.80;26.30;;;;;;;13.13;70.71;99511.22;2569547;23;20150;-66
2022/04/01 00:02:55;;;;;;;42.13;27.57;;;;;;;13.09;70.32;99488.38;2556860;23;20626;-66
2022/04/01 00:03:56;;;;;;;42.33;28.23;;;;;;;13.05;70.68;99496.13;2556703;23;20242;-66
2022/04/01 00:04:56;;;;;;;47.30;30.03;;;;;;;13.02;71.14;99505.41;2569879;23;20154;-66
2022/04/01 00:05:57;;;;;;;45.00;30.97;;;;;;;12.89;72.04;99485.41;2569968;23;20187;-66
2022/04/01 00:06:58;;;;;;;48.37;31.23;;;;;;;12.94;72.13;99495.09;2556706;23;20166;-66
2022/04/01 00:07:59;;;;;;;48.43;30.40;;;;;;;13.05;71.79;99506.47;2557013;23;20229;-66
2022/04/01 00:08:59;;;;;;;42.73;28.63;;;;;;;12.97;71.58;99494.19;2570096;23;20161;-66
2022/04/01 00:10:00;;;;;;;42.10;28.87;;;;;;;13.12;71.45;99514.47;2570129;23;20152;-66
2022/04/01 00:11:01;;;;;;;43.23;29.33;;;;;;;13.11;71.22;99515.72;2569994;23;20155;-66
2022/04/01 00:12:02;;;;;;;49.67;29.40;;;;;;;13.12;71.52;99506.13;2570112;23;20154;-66
2022/04/01 00:13:03;;;;;;;46.17;31.13;;;;;;;12.91;72.20;99509.97;2556883;23;20398;-66
2022/04/01 00:14:04;;;;;;;46.53;31.50;;;;;;;12.72;72.80;99509.34;2556970;23;20629;-66
2022/04/01 00:15:05;;;;;;;41.57;31.97;;;;;;;12.74;72.97;99509.63;2569933;23;20859;-66
2022/04/01 00:16:06;;;;;;;48.20;30.83;;;;;;;12.83;72.63;99509.56;2570219;23;20159;-66
2022/04/01 00:17:07;;;;;;;41.33;29.57;;;;;;;12.91;72.41;99510.72;2569952;23;20941;-66
2022/04/01 00:18:07;;;;;;;47.03;30.47;;;;;;;12.97;72.03;99519.22;2570119;23;20176;-66
2022/04/01 00:19:08;;;;;;;47.17;30.03;;;;;;;11.49;72.10;99283.41;2570085;23;20158;-66
2022/04/01 00:20:10;;;;;;;48.30;31.60;;;;;;;13.02;72.02;99516.53;2570155;23;20222;-66
2022/04/01 00:21:10;;;;;;;47.03;32.20;;;;;;;12.92;72.39;99494.81;2570018;23;20149;-66
2022/04/01 00:22:11;;;;;;;48.87;31.30;;;;;;;13.09;72.23;99515.41;2569932;23;20465;-66
2022/04/01 00:23:12;;;;;;;47.33;32.00;;;;;;;13.09;72.30;99512.63;2570065;23;20148;-66
2022/04/01 00:24:13;;;;;;;46.37;30.80;;;;;;;13.06;71.94;99500.44;2570027;23;20155;-66
2022/04/01 00:25:14;;;;;;;44.03;29.77;;;;;;;13.11;71.84;99510.16;2569991;23;20460;-66
2022/04/01 00:26:15;;;;;;;49.53;30.60;;;;;;;13.13;71.83;99511.22;2556910;23;20218;-66
2022/04/01 00:27:15;;;;;;;43.90;30.33;;;;;;;13.17;71.93;99505.47;2556949;23;20377;-66
2022/04/01 00:28:16;;;;;;;43.67;29.03;;;;;;;13.16;71.81;99499.13;2556830;23;20166;-66
2022/04/01 00:29:16;;;;;;;40.30;26.53;;;;;;;13.13;70.61;99491.75;2556938;23;20160;-66
2022/04/01 00:30:17;;;;;;;42.77;25.93;;;;;;;13.13;69.94;99490.97;2570020;23;20183;-66
2022/04/01 00:31:18;;;;;;;46.70;29.37;;;;;;;12.42;70.07;99401.31;2570017;23;20506;-66
2022/04/01 00:32:21;;;;;;;39.03;27.33;;;;;;;13.13;70.31;99485.41;2569701;23;20618;-66
2022/04/01 00:33:21;;;;;;;41.20;27.20;;;;;;;13.10;70.17;99486.34;2569911;23;20379;-66
2022/04/01 00:34:22;;;;;;;40.53;27.83;;;;;;;13.09;70.20;99485.59;2570112;23;20386;-66
2022/04/01 00:35:22;;;;;;;37.10;27.33;;;;;;;13.14;70.07;99481.38;2569905;23;20147;-66
2022/04/01 00:36:23;;;;;;;42.50;26.53;;;;;;;13.13;69.87;99479.84;2570155;23;20228;-66
2022/04/01 00:37:23;;;;;;;39.73;26.90;;;;;;;13.09;69.62;99482.03;2570138;23;20147;-66
2022/04/01 00:38:25;;;;;;;40.97;27.50;;;;;;;13.09;69.59;99480.03;2570002;23;20147;-66
2022/04/01 00:39:29;;;;;;;39.23;27.33;;;;;;;13.04;69.85;99477.91;2570152;23;20147;-66
2022/04/01 00:40:30;;;;;;;39.70;26.20;;;;;;;13.15;69.48;99485.69;2570111;23;20374;-66
2022/04/01 00:41:30;;;;;;;39.10;26.67;;;;;;;12.07;69.19;99355.84;2569793;23;20392;-66
2022/04/01 00:42:31;;;;;;;42.37;27.67;;;;;;;12.18;69.32;99345.75;2569956;23;20202;-66
2022/04/01 00:43:34;;;;;;;39.33;26.60;;;;;;;13.12;69.21;99481.09;2569834;23;20645;-66
2022/04/01 00:44:38;;;;;;;42.17;26.47;;;;;;;13.11;69.47;99485.13;2570028;23;20269;-66
2022/04/01 00:45:38;;;;;;;46.17;27.97;;;;;;;13.12;68.84;99481.84;2570017;23;20376;-66
2022/04/01 00:46:43;;;;;;;40.63;27.27;;;;;;;13.11;69.06;99485.13;2569870;23;20372;-66
2022/04/01 00:47:44;;;;;;;42.73;28.40;;;;;;;13.09;69.67;99476.47;2569731;23;20200;-66
2022/04/01 00:48:45;;;;;;;38.77;26.97;;;;;;;13.12;69.24;99479.06;2570196;23;20465;-66
2022/04/01 00:49:47;;;;;;;41.67;26.43;;;;;;;13.13;69.24;99477.06;2556925;23;20569;-66
2022/04/01 00:50:48;;;;;;;39.00;26.47;;;;;;;13.14;68.96;99478.59;2556977;23;20553;-66
2022/04/01 00:51:50;;;;;;;42.90;26.37;;;;;;;13.14;68.77;99478.59;2569745;23;20384;-66
2022/04/01 00:52:51;;;;;;;40.27;27.23;;;;;;;13.12;68.97;99487.41;2569927;23;20436;-66
2022/04/01 00:53:52;;;;;;;44.20;27.33;;;;;;;13.13;68.89;99486.19;2569638;23;20376;-66
2022/04/01 00:54:52;;;;;;;40.30;26.33;;;;;;;13.13;68.73;99480.63;2570043;23;20382;-66
2022/04/01 00:55:53;;;;;;;44.87;27.37;;;;;;;13.14;68.67;99484.94;2570048;23;20653;-66
2022/04/01 00:56:54;;;;;;;41.83;27.27;;;;;;;13.13;68.66;99480.63;2569925;23;20179;-66
2022/04/01 00:57:55;;;;;;;40.73;28.67;;;;;;;13.08;69.22;99466.59;2556695;23;20505;-66
2022/04/01 00:58:57;;;;;;;40.23;27.83;;;;;;;12.31;69.48;99357.41;2556694;23;20371;-66
2022/04/01 00:59:57;;;;;;;43.23;27.70;;;;;;;13.09;69.39;99470.91;2570064;23;20528;-66
2022/04/01 01:00:59;;;;;;;44.63;27.67;;;;;;;13.11;69.63;99477.53;2569977;23;20797;-66
2022/04/01 01:02:00;;;;;;;39.33;26.60;;;;;;;13.11;69.10;99471.97;2556287;23;20531;-66
2022/04/01 01:03:01;;;;;;;43.93;26.73;;;;;;;12.91;68.29;99444.00;2544530;23;20395;-66
2022/04/01 01:04:08;;;;;;;44.27;27.37;;;;;;;13.07;68.66;99468.59;2556546;23;20899;-66
2022/04/01 01:05:09;;;;;;;42.80;27.00;;;;;;;12.30;68.74;99383.63;2569856;23;20857;-66
2022/04/01 01:06:10;;;;;;;40.10;25.63;;;;;;;12.95;69.20;99483.50;2570125;23;20887;-66
2022/04/01 01:07:12;;;;;;;39.43;25.73;;;;;;;12.94;69.30;99493.09;2569944;23;20740;-66
2022/04/01 01:08:13;;;;;;;37.93;25.77;;;;;;;12.88;68.93;99483.09;2570028;23;20314;-66
2022/04/01 01:09:14;;;;;;;36.87;25.33;;;;;;;12.98;68.92;99504.06;2569924;23;20528;-66
2022/04/01 01:10:18;;;;;;;42.97;26.70;;;;;;;11.93;68.68;99342.69;2569923;23;20495;-66
2022/04/01 01:11:19;;;;;;;40.47;27.13;;;;;;;12.91;69.00;99484.94;2569850;23;20154;-66
2022/04/01 01:12:19;;;;;;;40.47;26.93;;;;;;;12.92;69.11;99486.47;2569692;23;20397;-66
2022/04/01 01:13:20;;;;;;;40.77;27.07;;;;;;;12.91;69.43;99482.16;2569542;23;20151;-66
2022/04/01 01:14:33;;;;;;;39.23;26.00;;;;;;;12.91;69.44;99493.28;2569956;23;20505;-66
2022/04/01 01:15:37;;;;;;;38.40;26.07;;;;;;;12.95;69.33;99488.28;2569711;23;20149;-66
2022/04/01 01:16:40;;;;;;;49.00;26.17;;;;;;;12.91;69.11;99493.28;2569812;23;20384;-66
2022/04/01 01:17:41;;;;;;;43.90;25.73;;;;;;;12.91;69.12;99491.25;2570235;23;20421;-66
2022/04/01 01:18:42;;;;;;;39.83;26.43;;;;;;;12.77;69.25;99480.88;2570791;23;20745;-66
2022/04/01 01:19:45;;;;;;;39.20;25.87;;;;;;;12.82;69.28;99487.78;2570894;23;20383;-66
2022/04/01 01:20:46;;;;;;;43.37;25.43;;;;;;;12.77;69.40;99494.00;2570732;23;20152;-66
2022/04/01 01:21:49;;;;;;;38.73;25.97;;;;;;;12.68;69.59;99488.50;2570501;23;20420;-66
2022/04/01 01:22:49;;;;;;;41.63;26.40;;;;;;;12.19;69.80;99416.72;2570691;23;20159;-66
2022/04/01 01:23:50;;;;;;;39.70;26.43;;;;;;;11.75;70.09;99365.00;2570518;23;20383;-66
2022/04/01 01:24:51;;;;;;;40.57;27.00;;;;;;;12.05;70.49;99419.44;2570728;23;20159;-66
2022/04/01 01:25:52;;;;;;;39.80;27.40;;;;;;;12.37;71.00;99485.28;2570720;23;20574;-66
2022/04/01 01:26:53;;;;;;;41.57;27.00;;;;;;;12.40;71.34;99474.00;2570644;23;20376;-66
2022/04/01 01:27:54;;;;;;;43.27;28.77;;;;;;;12.42;71.37;99465.97;2570746;23;20154;-66
2022/04/01 01:28:56;;;;;;;46.63;28.40;;;;;;;12.42;71.69;99467.97;2570764;23;20379;-66
2022/04/01 01:29:57;;;;;;;43.60;29.57;;;;;;;12.33;72.22;99466.03;2570606;23;20179;-66
2022/04/01 01:30:57;;;;;;;42.63;29.40;;;;;;;12.42;72.12;99477.09;2570753;23;20399;-66
2022/04/01 01:32:00;;;;;;;41.40;29.10;;;;;;;12.39;72.34;99472.47;2570417;23;20238;-66
2022/04/01 01:33:01;;;;;;;48.37;29.57;;;;;;;12.35;72.27;99469.09;2570737;23;20151;-66
2022/04/01 01:34:02;;;;;;;41.80;27.93;;;;;;;12.36;72.18;99458.75;2570271;23;20411;-66
2022/04/01 01:35:04;;;;;;;46.83;32.83;;;;;;;11.67;72.11;99350.69;2570893;23;20371;-66
2022/04/01 01:36:05;;;;;;;53.23;34.73;;;;;;;12.16;73.12;99459.34;2570759;23;20152;-66
2022/04/01 01:37:10;;;;;;;55.43;33.17;;;;;;;12.15;73.54;99470.91;2570758;23;20374;-66
2022/04/01 01:38:10;;;;;;;42.10;29.20;;;;;;;12.26;73.31;99480.28;2570782;23;20234;-66
2022/04/01 01:39:11;;;;;;;44.73;30.37;;;;;;;12.26;72.90;99476.72;2570436;23;20375;-66
2022/04/01 01:40:11;;;;;;;47.03;30.80;;;;;;;12.28;72.57;99471.44;2570739;23;20236;-66
2022/04/01 01:41:12;;;;;;;48.20;33.03;;;;;;;12.34;72.82;99464.78;2557574;23;20522;-66
2022/04/01 01:42:13;;;;;;;47.37;32.57;;;;;;;12.24;73.08;99463.28;2557368;23;20156;-66
2022/04/01 01:43:13;;;;;;;45.17;33.47;;;;;;;12.08;74.12;99460.13;2570728;23;20155;-66
2022/04/01 01:44:15;;;;;;;51.73;34.57;;;;;;;11.98;74.39;99455.84;2570461;23;20162;-66
2022/04/01 01:45:16;;;;;;;48.90;33.53;;;;;;;12.02;74.54;99451.69;2570640;23;20642;-66
2022/04/01 01:46:16;;;;;;;45.83;31.33;;;;;;;11.96;74.15;99436.91;2570768;23;20698;-66
2022/04/01 01:47:17;;;;;;;51.47;31.77;;;;;;;12.20;73.97;99467.50;2570525;23;20493;-66
2022/04/01 01:48:18;;;;;;;45.73;31.97;;;;;;;12.19;73.55;99449.28;2557481;23;20157;-66
2022/04/01 01:49:21;;;;;;;45.43;30.50;;;;;;;12.32;73.35;99464.50;2557402;23;20152;-66
2022/04/01 01:55:38;;;;;;;51.70;32.20;;;;;;;12.16;73.57;99444.66;2570934;23;20359;-66
2022/04/01 01:56:41;;;;;;;47.30;31.50;;;;;;;12.12;73.75;99449.63;2570613;23;20412;-66
2022/04/01 01:57:41;;;;;;;45.53;31.37;;;;;;;11.38;73.72;99333.81;2570774;23;20545;-66
2022/04/01 01:58:42;;;;;;;45.90;31.50;;;;;;;12.28;73.61;99447.22;2570387;23;20461;-66
2022/04/01 01:59:44;;;;;;;42.20;29.80;;;;;;;12.37;73.31;99449.97;2570635;23;20501;-66
2022/04/01 02:00:45;;;;;;;44.47;30.47;;;;;;;12.43;73.29;99439.72;2570615;23;20148;-66
2022/04/01 02:01:46;;;;;;;44.27;30.07;;;;;;;12.48;72.71;99444.63;2570341;23;20370;-66
2022/04/01 02:02:47;;;;;;;49.30;30.77;;;;;;;12.51;72.60;99442.91;2570527;23;20389;-66
2022/04/01 02:03:47;;;;;;;42.27;30.60;;;;;;;12.19;72.54;99400.06;2570331;23;20178;-66
2022/04/01 02:04:49;;;;;;;45.20;30.53;;;;;;;12.54;72.36;99467.75;2570441;23;20152;-66
2022/04/01 02:05:50;;;;;;;43.10;29.43;;;;;;;12.59;72.21;99457.97;2557254;23;20164;-66
2022/04/01 02:06:51;;;;;;;43.40;30.07;;;;;;;12.54;71.75;99442.75;2557349;23;20379;-66
2022/04/01 02:07:53;;;;;;;47.83;29.17;;;;;;;12.60;72.19;99449.19;2570527;23;20157;-66
2022/04/01 02:08:54;;;;;;;43.13;29.53;;;;;;;12.47;73.35;99436.78;2570446;23;20244;-66
2022/04/01 02:09:54;;;;;;;41.50;28.80;;;;;;;12.52;72.93;99436.91;2570495;23;20379;-66
2022/04/01 02:10:55;;;;;;;48.37;29.93;;;;;;;12.59;72.34;99435.75;2570651;23;20153;-66
2022/04/01 02:11:56;;;;;;;44.40;28.53;;;;;;;12.61;72.19;99431.25;2570321;23;20621;-66
2022/04/01 02:12:58;;;;;;;45.10;29.40;;;;;;;12.67;71.82;99426.59;2570699;23;20153;-66
2022/04/01 02:13:58;;;;;;;44.13;29.60;;;;;;;12.72;71.91;99423.16;2570198;23;20153;-66
2022/04/01 02:14:59;;;;;;;45.73;30.13;;;;;;;12.65;71.82;99406.84;2570553;23;20371;-66
2022/04/01 02:16:00;;;;;;;44.03;30.13;;;;;;;12.64;71.85;99410.88;2570545;23;20152;-66
2022/04/01 02:17:00;;;;;;;46.60;31.10;;;;;;;12.51;72.11;99406.81;2570691;23;20152;-66
2022/04/01 02:18:01;;;;;;;45.23;29.53;;;;;;;12.46;72.32;99407.44;2570582;23;20151;-66
2022/04/01 02:19:01;;;;;;;45.43;29.47;;;;;;;12.48;72.06;99413.28;2570482;23;20500;-66
2022/04/01 02:20:05;;;;;;;39.13;29.00;;;;;;;11.84;71.74;99318.53;2570510;23;20163;-66
2022/04/01 02:21:10;;;;;;;47.80;29.77;;;;;;;12.17;72.05;99366.44;2570331;23;20157;-66
2022/04/01 02:22:11;;;;;;;42.90;30.20;;;;;;;12.53;71.91;99405.09;2570193;23;20363;-66
2022/04/01 02:23:11;;;;;;;40.50;29.83;;;;;;;12.61;71.86;99399.94;2570376;23;20414;-66
2022/04/01 02:24:13;;;;;;;43.83;30.73;;;;;;;12.51;72.02;99395.69;2570305;23;20175;-66
2022/04/01 02:25:14;;;;;;;47.50;31.50;;;;;;;12.36;72.29;99376.19;2570479;23;20152;-66
2022/04/01 02:26:15;;;;;;;46.47;32.27;;;;;;;11.92;72.75;99332.81;2570585;23;20437;-66
2022/04/01 02:27:15;;;;;;;42.73;31.07;;;;;;;10.94;73.05;99207.25;2570592;23;20153;-66
2022/04/01 02:28:15;;;;;;;47.10;31.90;;;;;;;12.24;72.96;99382.00;2570328;23;20818;-66
2022/04/01 02:29:19;;;;;;;45.70;31.67;;;;;;;12.28;72.69;99388.91;2570468;23;20155;-66
2022/04/01 02:30:19;;;;;;;47.60;31.70;;;;;;;12.09;72.56;99351.38;2557224;23;20212;-66
2022/04/01 02:31:20;;;;;;;51.47;32.17;;;;;;;12.09;72.26;99345.81;2557379;23;20388;-66
2022/04/01 02:32:20;;;;;;;47.07;31.33;;;;;;;12.37;72.49;99372.16;2570171;23;20209;-66
2022/04/01 02:33:21;;;;;;;46.03;32.37;;;;;;;12.38;72.57;99372.91;2570109;23;20195;-66
2022/04/01 02:34:25;;;;;;;47.70;32.03;;;;;;;12.09;72.63;99343.03;2557297;23;20153;-66
2022/04/01 02:35:25;;;;;;;44.67;31.20;;;;;;;12.30;73.11;99380.84;2558069;23;20152;-66
2022/04/01 02:36:26;;;;;;;48.77;32.27;;;;;;;11.11;73.58;99225.81;2570494;23;20382;-66
2022/04/01 02:37:26;;;;;;;48.13;32.47;;;;;;;12.21;73.60;99374.59;2570624;23;20239;-66
2022/04/01 02:38:29;;;;;;;46.43;33.10;;;;;;;12.17;73.20;99368.44;2570268;23;20147;-66
2022/04/01 02:39:29;;;;;;;49.47;32.30;;;;;;;12.27;72.89;99389.38;2570484;23;20506;-66
2022/04/01 02:40:30;;;;;;;53.07;32.43;;;;;;;12.15;72.59;99366.13;2570420;23;20376;-66
2022/04/01 02:41:31;;;;;;;44.83;32.97;;;;;;;12.30;72.67;99380.09;2570350;23;20155;-66
2022/04/01 02:42:32;;;;;;;46.67;31.30;;;;;;;12.33;72.41;99388.25;2570290;23;20171;-66
2022/04/01 02:43:34;;;;;;;44.97;30.17;;;;;;;11.45;72.29;99269.72;2569984;23;20919;-66
2022/04/01 02:44:34;;;;;;;43.43;30.70;;;;;;;12.31;72.51;99392.75;2569839;23;20199;-66
2022/04/01 02:45:34;;;;;;;43.77;30.10;;;;;;;12.26;72.62;99385.84;2570574;23;20365;-66
2022/04/01 02:46:45;;;;;;;45.83;29.80;;;;;;;12.28;72.38;99391.69;2570379;23;20229;-66
2022/04/01 02:47:46;;;;;;;45.23;29.87;;;;;;;11.11;72.02;99195.31;2570351;23;20143;-66
2022/04/01 02:48:46;;;;;;;39.87;29.60;;;;;;;11.12;71.87;99199.59;2570435;23;20417;-66
2022/04/01 02:49:47;;;;;;;41.50;29.17;;;;;;;12.38;72.09;99390.38;2570547;23;20158;-66
2022/04/01 02:50:49;;;;;;;44.47;29.77;;;;;;;12.40;71.99;99387.13;2570211;23;20187;-66
2022/04/01 02:51:49;;;;;;;40.70;30.47;;;;;;;12.35;72.13;99396.88;2570437;23;20159;-66
2022/04/01 02:52:50;;;;;;;43.20;29.90;;;;;;;12.26;72.55;99407.28;2570458;23;20395;-66
2022/04/01 02:53:50;;;;;;;47.73;31.57;;;;;;;12.19;72.97;99425.06;2570278;23;20152;-66
2022/04/01 02:54:52;;;;;;;42.57;30.13;;;;;;;12.15;72.65;99430.00;2570374;23;20155;-66
2022/04/01 02:55:53;;;;;;;44.97;30.13;;;;;;;12.16;72.48;99433.56;2570515;23;20213;-66
2022/04/01 02:56:53;;;;;;;45.13;30.20;;;;;;;12.18;72.28;99433.84;2570369;23;20445;-66
2022/04/01 02:57:54;;;;;;;44.07;30.63;;;;;;;12.12;72.26;99430.97;2570541;23;20155;-66
2022/04/01 02:58:55;;;;;;;51.30;31.57;;;;;;;12.09;72.35;99428.38;2557171;23;20163;-66
2022/04/01 02:59:55;;;;;;;45.83;31.13;;;;;;;11.05;72.61;99254.63;2557403;23;20621;-66
2022/04/01 03:00:56;;;;;;;42.37;30.10;;;;;;;12.14;72.76;99414.59;2570550;23;20788;-66
2022/04/01 03:01:56;;;;;;;38.70;29.70;;;;;;;12.20;72.70;99406.41;2570244;23;20509;-66
2022/04/01 03:02:57;;;;;;;39.73;30.17;;;;;;;12.22;72.24;99401.13;2570337;23;20638;-66
2022/04/01 03:03:58;;;;;;;48.07;30.03;;;;;;;11.71;71.82;99309.66;2569908;23;20154;-66
2022/04/01 03:04:59;;;;;;;44.57;29.60;;;;;;;11.02;71.53;99197.38;2570294;23;20159;-66
2022/04/01 03:06:00;;;;;;;41.87;30.00;;;;;;;11.98;71.63;99336.47;2570571;23;20474;-66
2022/04/01 03:07:00;;;;;;;45.37;30.70;;;;;;;12.25;72.27;99383.53;2570338;23;20159;-66
2022/04/01 03:08:04;;;;;;;43.37;31.10;;;;;;;12.24;72.61;99388.31;2570341;23;20521;-66
2022/04/01 03:09:09;;;;;;;48.43;32.17;;;;;;;11.47;72.77;99283.13;2570329;23;20159;-66
2022/04/01 03:10:10;;;;;;;44.00;30.73;;;;;;;11.83;72.49;99336.41;2557073;23;20399;-66
2022/04/01 03:11:11;;;;;;;50.77;31.43;;;;;;;12.21;72.75;99402.38;2556999;23;20390;-66
2022/04/01 03:12:12;;;;;;;41.47;28.80;;;;;;;12.08;72.65;99410.94;2570126;23;20383;-66
2022/04/01 03:13:12;;;;;;;41.53;28.87;;;;;;;12.13;72.04;99403.94;2570342;23;20499;-66
2022/04/01 03:14:13;;;;;;;43.10;29.00;;;;;;;12.15;71.93;99409.81;2570117;23;20160;-66
2022/04/01 03:15:13;;;;;;;42.80;29.63;;;;;;;11.63;71.80;99330.66;2570241;23;20174;-66
2022/04/01 03:16:14;;;;;;;43.67;30.40;;;;;;;12.12;71.45;99407.97;2570426;23;20155;-66
2022/04/01 03:17:14;;;;;;;41.97;29.33;;;;;;;11.91;71.29;99378.47;2570302;23;20583;-66
2022/04/01 03:18:15;;;;;;;44.73;30.17;;;;;;;11.97;71.77;99399.56;2570446;23;20210;-66
2022/04/01 03:19:16;;;;;;;45.63;30.90;;;;;;;11.93;72.02;99389.91;2570332;23;20216;-66
2022/04/01 03:20:17;;;;;;;45.47;30.23;;;;;;;11.75;72.64;99381.66;2570486;23;20513;-66
2022/04/01 03:21:17;;;;;;;47.80;32.87;;;;;;;11.86;72.89;99382.66;2570086;23;20383;-66
2022/04/01 03:22:20;;;;;;;46.30;31.27;;;;;;;11.36;72.50;99302.25;2556747;23;20164;-66
2022/04/01 03:23:21;;;;;;;49.77;33.37;;;;;;;11.87;73.00;99378.66;2556904;23;20556;-66
2022/04/01 03:24:21;;;;;;;48.13;32.57;;;;;;;10.91;72.96;99227.59;2570256;23;20417;-66
2022/04/01 03:25:21;;;;;;;42.77;31.37;;;;;;;11.95;72.92;99379.81;2570191;23;20222;-66
2022/04/01 03:26:23;;;;;;;43.90;30.97;;;;;;;11.99;72.83;99385.22;2570322;23;20598;-66
2022/04/01 03:27:23;;;;;;;44.30;30.17;;;;;;;12.03;72.73;99383.81;2570150;23;20151;-66
2022/04/01 03:28:23;;;;;;;44.93;29.67;;;;;;;12.05;72.63;99383.34;2570303;23;20376;-66
2022/04/01 03:29:24;;;;;;;46.57;29.37;;;;;;;12.06;72.13;99390.44;2570202;23;20195;-66
2022/04/01 03:32:49;;;;;;;39.37;26.77;;;;;;;12.06;69.77;99382.09;2565597;23;20168;-66
2022/04/01 03:33:52;;;;;;;44.87;29.80;;;;;;;12.04;71.32;99385.34;2568931;23;20382;-66
2022/04/01 03:34:53;;;;;;;43.70;28.10;;;;;;;11.37;70.71;99287.91;2570167;23;20377;-66
2022/04/01 03:35:53;;;;;;;46.70;29.40;;;;;;;11.98;71.63;99387.22;2570227;23;20433;-66
2022/04/01 03:36:54;;;;;;;38.50;26.23;;;;;;;11.97;70.43;99394.03;2570217;23;20158;-66
2022/04/01 03:37:55;;;;;;;37.73;26.80;;;;;;;11.96;69.61;99380.59;2570114;23;20155;-66
2022/04/01 03:38:56;;;;;;;44.10;29.47;;;;;;;11.79;70.13;99352.47;2570072;23;20839;-66
2022/04/01 03:39:58;;;;;;;39.93;28.80;;;;;;;11.90;71.29;99363.06;2569987;23;20160;-66
2022/04/01 03:41:00;;;;;;;46.20;27.80;;;;;;;11.92;70.64;99377.22;2570110;23;20503;-66
2022/04/01 03:42:01;;;;;;;40.77;27.77;;;;;;;11.96;70.08;99400.03;2569791;23;20379;-66
2022/04/01 03:43:02;;;;;;;46.10;27.90;;;;;;;11.94;70.39;99399.75;2570210;23;20394;-66
2022/04/01 03:44:03;;;;;;;47.87;27.10;;;;;;;11.90;69.71;99408.25;2569600;23;20387;-66
2022/04/01 03:45:06;;;;;;;43.40;26.63;;;;;;;11.94;70.03;99403.28;2569850;23;20207;-66
2022/04/01 03:46:09;;;;;;;38.83;27.13;;;;;;;11.93;70.37;99395.44;2570323;23;20156;-66
2022/04/01 03:47:14;;;;;;;37.73;26.47;;;;;;;11.96;70.86;99395.28;2569992;23;20382;-66
2022/04/01 03:48:23;;;;;;;36.47;25.80;;;;;;;11.21;70.55;99277.22;2570151;23;20382;-66
2022/04/01 03:49:24;;;;;;;46.23;27.50;;;;;;;11.84;70.87;99387.91;2570208;23;20358;-66
2022/04/01 03:50:32;;;;;;;40.53;27.50;;;;;;;11.76;70.35;99397.06;2570232;23;20428;-66
2022/04/01 03:51:32;;;;;;;41.70;27.13;;;;;;;11.74;70.41;99403.06;2570363;23;20215;-66
2022/04/01 03:52:33;;;;;;;37.07;24.97;;;;;;;11.75;70.18;99407.41;2570121;23;20360;-66
2022/04/01 03:53:36;;;;;;;46.53;26.93;;;;;;;10.78;70.48;99272.13;2569718;23;20149;-66
2022/04/01 03:54:40;;;;;;;39.10;25.63;;;;;;;11.77;70.01;99410.47;2570029;23;20613;-66
2022/04/01 03:55:45;;;;;;;36.93;27.17;;;;;;;11.78;70.39;99411.25;2556954;23;20385;-66
2022/04/01 03:56:52;;;;;;;41.07;26.50;;;;;;;11.79;71.20;99413.53;2558048;23;20360;-66
2022/04/01 03:57:55;;;;;;;36.57;26.20;;;;;;;11.84;70.28;99407.34;2570324;23;20366;-66
2022/04/01 03:59:06;;;;;;;41.33;27.10;;;;;;;11.75;70.20;99409.41;2556749;23;20388;-66
2022/04/01 04:00:12;;;;;;;36.80;26.60;;;;;;;11.61;70.18;99390.63;2559413;23;20776;-66
2022/04/01 04:01:13;;;;;;;38.97;25.43;;;;;;;11.74;69.84;99438.38;2570187;23;20367;-66
2022/04/01 04:02:13;;;;;;;35.83;25.13;;;;;;;11.69;69.51;99414.03;2569804;23;20399;-66
2022/04/01 04:03:14;;;;;;;36.70;25.37;;;;;;;11.61;69.63;99413.63;2570200;23;20174;-66
2022/04/01 04:04:17;;;;;;;39.47;25.93;;;;;;;11.57;69.48;99418.53;2570312;23;20188;-66
2022/04/01 04:05:21;;;;;;;43.47;25.87;;;;;;;11.37;70.18;99414.75;2570231;23;20168;-66
2022/04/01 04:06:23;;;;;;;40.27;27.00;;;;;;;11.25;70.88;99413.69;2570240;23;20380;-66
2022/04/01 04:07:25;;;;;;;44.23;27.27;;;;;;;10.96;71.18;99388.47;2569890;23;20372;-66
2022/04/01 04:08:26;;;;;;;46.00;28.17;;;;;;;10.50;72.29;99323.25;2570206;23;20367;-66
2022/04/01 04:09:28;;;;;;;45.43;28.93;;;;;;;11.11;72.83;99403.22;2570089;23;20388;-66
2022/04/01 04:10:29;;;;;;;48.63;31.47;;;;;;;11.10;73.68;99437.75;2569988;23;20762;-68
2022/04/01 04:11:33;;;;;;;43.03;28.37;;;;;;;10.97;73.37;99401.09;2569563;23;20388;-68
2022/04/01 04:12:35;;;;;;;43.23;26.20;;;;;;;11.06;73.00;99412.19;2569414;23;20390;-68
2022/04/01 04:13:37;;;;;;;43.20;25.70;;;;;;;10.71;72.78;99368.66;2569581;23;20376;-68
2022/04/01 04:14:40;;;;;;;41.97;26.50;;;;;;;11.09;72.86;99413.25;2570002;23;20458;-68
2022/04/01 04:15:56;;;;;;;39.30;27.97;;;;;;;11.13;72.75;99411.09;2570109;23;20375;-68
2022/04/01 04:16:57;;;;;;;43.13;26.87;;;;;;;11.18;72.11;99402.91;2570079;23;20362;-66
2022/04/01 04:17:59;;;;;;;41.70;28.10;;;;;;;11.19;72.87;99407.22;2570022;23;20459;-66
2022/04/01 04:19:02;;;;;;;45.43;28.03;;;;;;;10.02;74.28;99243.88;2570040;23;20438;-65
2022/04/01 04:20:33;;;;;;;45.70;28.80;;;;;;;10.99;75.79;99378.47;2570335;23;20733;-65
2022/04/01 04:22:09;;;;;;;45.87;28.70;;;;;;;10.84;77.52;99377.56;2556777;23;20368;-65
2022/04/01 04:23:38;;;;;;;44.27;28.93;;;;;;;10.87;77.48;99379.41;2560195;23;20386;-68
2022/04/01 04:24:43;;;;;;;43.03;29.07;;;;;;;10.92;77.14;99381.56;2570095;23;20379;-68
2022/04/01 04:26:15;;;;;;;43.83;27.73;;;;;;;10.39;76.35;99294.47;2570132;23;20390;-68
2022/04/01 04:27:23;;;;;;;48.83;27.30;;;;;;;11.05;75.29;99374.59;2556656;23;20392;-68
2022/04/01 04:28:25;;;;;;;43.83;27.30;;;;;;;11.00;75.15;99371.69;2558560;23;20361;-68
2022/04/01 04:29:28;;;;;;;43.10;27.10;;;;;;;10.95;75.88;99361.22;2570127;23;20453;-68
2022/04/01 04:30:34;;;;;;;45.13;28.73;;;;;;;10.99;76.78;99368.16;2569992;23;20423;-68
2022/04/01 04:31:36;;;;;;;45.73;28.23;;;;;;;10.88;77.16;99356.78;2569888;23;20402;-68
2022/04/01 04:32:53;;;;;;;46.50;29.80;;;;;;;10.37;77.27;99296.94;2570052;23;20375;-68
2022/04/01 04:33:56;;;;;;;46.23;27.90;;;;;;;9.71;77.01;99185.16;2569643;23;20356;-68
2022/04/01 04:34:57;;;;;;;43.13;27.87;;;;;;;11.16;76.53;99399.06;2569952;23;20391;-68
2022/04/01 04:36:04;;;;;;;44.40;27.57;;;;;;;10.84;76.06;99367.25;2570078;23;20380;-68
2022/04/01 04:37:11;;;;;;;37.17;26.20;;;;;;;11.23;76.00;99404.28;2556772;23;20154;-68
2022/04/01 04:38:13;;;;;;;43.07;25.43;;;;;;;11.38;76.18;99411.47;2558514;23;20368;-68
2022/04/01 04:39:31;;;;;;;38.00;25.20;;;;;;;11.35;77.15;99395.00;2569929;23;20380;-68
2022/04/01 04:40:31;;;;;;;37.83;24.00;;;;;;;11.28;77.09;99395.34;2569889;23;20387;-68
2022/04/01 04:41:33;;;;;;;37.57;23.87;;;;;;;11.31;76.82;99400.72;2569652;23;20356;-68
2022/04/01 04:42:34;;;;;;;46.73;24.33;;;;;;;10.92;76.51;99326.13;2569956;23;20609;-68
2022/04/01 04:43:44;;;;;;;46.20;26.63;;;;;;;11.38;76.22;99385.78;2569552;23;20746;-68
2022/04/01 04:44:45;;;;;;;39.77;25.37;;;;;;;11.44;76.02;99397.75;2569617;23;20619;-68
2022/04/01 04:45:50;;;;;;;40.27;24.83;;;;;;;11.57;76.04;99404.66;2569816;23;20380;-68
2022/04/01 04:46:51;;;;;;;57.17;26.70;;;;;;;11.66;75.01;99404.66;2569866;23;20142;-67
2022/04/01 04:47:51;;;;;;;53.90;25.83;;;;;;;11.73;74.55;99407.09;2570117;23;20445;-68
2022/04/01 04:48:54;;;;;;;53.20;25.37;;;;;;;11.80;74.30;99400.44;2569424;23;20160;-68
2022/04/01 04:49:57;;;;;;;54.67;25.80;;;;;;;11.89;73.80;99392.81;2567128;23;20227;-68
2022/04/01 04:50:59;;;;;;;42.90;24.03;;;;;;;11.63;73.58;99350.09;2569571;23;20518;-68
2022/04/01 04:52:00;;;;;;;40.57;23.80;;;;;;;11.91;73.64;99387.59;2569536;23;20437;-68
2022/04/01 04:53:02;;;;;;;35.63;23.73;;;;;;;11.84;73.65;99374.03;2569727;23;20376;-68
2022/04/01 04:54:03;;;;;;;40.13;24.10;;;;;;;10.94;73.81;99243.28;2569348;23;20957;-65